Terminal Aerodrome Forecast
Issued by NWS

Home | Current Version | Previous Version | Text Only | Print | Product List | Glossary On
Versions: 1 2 3 4 5 6 7 8 9 10 11 12 13 14 15 16 17 18 19 20 21 22 23 24 25 26 27 28 29 30 31
497
FTAK31 PANC 291120
TAFACD
TAF
PACD 291120Z 2912/3012 14015KT P6SM VCSH SCT020 BKN045
     FM291400 14015G25KT P6SM SCT020 BKN035
     FM291600 13025G35KT P6SM -RA SCT015 BKN025
     FM292200 13025G35KT 4SM -RA BKN015 OVC025
     FM300400 14015G25KT 5SM -RA SCT015 BKN025
     FM300800 18009KT P6SM -RA BKN025=

USA.gov is the U.S. government's official web portal to all federal, state and local government web resources and services.